This is the latest recevied weather packets stored in our database for station/object HARMALA. If no packets are shown the sender has not sent any weather packets the latest 10 day(s).
| Time | Temp. | Humidity | Pressure | Rain* | Wind** | Luminosity | Snow |
|---|---|---|---|---|---|---|---|
| 1778152046 | 12.22° C | 19% | 1015.9 hPa | 0 mm | - | - | - |
| 1778150846 | 11.67° C | 15% | 1016 hPa | 0 mm | - | - | - |
| 1778149647 | 11.67° C | 18% | 1015.9 hPa | 0 mm | - | - | - |
| 1778148446 | 12.22° C | 19% | 1015.9 hPa | 0 mm | - | - | - |
| 1778147246 | 10.56° C | 28% | 1016 hPa | 0 mm | - | - | - |
| 1778146046 | 10.56° C | 28% | 1016.1 hPa | 0 mm | - | - | - |
| 1778144847 | 10.56° C | 33% | 1016.2 hPa | 0 mm | - | - | - |
| 1778143646 | 9.44° C | 31% | 1016.3 hPa | 0 mm | - | - | - |
| 1778142447 | 10° C | 34% | 1016.3 hPa | 0 mm | - | - | - |
| 1778141246 | 10° C | 31% | 1016.4 hPa | 0 mm | - | - | - |
| 1778140046 | 9.44° C | 27% | 1016.4 hPa | 0 mm | - | - | - |
| 1778138846 | 8.33° C | 30% | 1016.4 hPa | 0 mm | - | - | - |
| 1778137646 | 8.33° C | 32% | 1016.4 hPa | 0 mm | - | - | - |
| 1778136446 | 8.33° C | 34% | 1016.5 hPa | 0 mm | - | - | - |
| 1778135246 | 8.33° C | 38% | 1016.4 hPa | 0 mm | - | - | - |
| 1778134046 | 7.78° C | 41% | 1016.3 hPa | 0 mm | - | - | - |
| 1778132846 | 7.22° C | 45% | 1016.3 hPa | 0 mm | - | - | - |
| 1778131646 | 5.56° C | 47% | 1016.3 hPa | 0 mm | - | - | - |
| 1778130445 | 5° C | 49% | 1016.5 hPa | 0 mm | - | - | - |
| 1778129245 | 4.44° C | 52% | 1016.6 hPa | 0 mm | - | - | - |
| 1778128045 | 1.67° C | 69% | 1016.6 hPa | 0 mm | - | - | - |
| 1778125646 | -1.67° C | 84% | 1016.9 hPa | 0 mm | - | - | - |
| 1778124446 | -3.89° C | 89% | 1016.9 hPa | 0 mm | - | - | - |
| 1778123246 | -4.44° C | 89% | 1017 hPa | 0 mm | - | - | - |
| 1778122045 | -5° C | 89% | 1016.9 hPa | 0 mm | - | - | - |
* Rain latest hour (hover to see other rain measurements)
** Current wind speed in m/s (hover to see current wind gust speed)